Time;durP1;ratioP1;P1;durP2;ratioP2;P2;SDS_P1;SDS_P2;PMS_P1;PMS_P2;Temp;Humidity;BMP_temperature;BMP_pressure;BME280_temperature;BME280_humidity;BME280_pressure;Samples;Min_cycle;Max_cycle;Signal;HPM_P1;HPM_P2
2021/12/16 00:01:50;;;;;;;;;;;23.30;99.90;;;;;;5073199;28;19918;-74
2021/12/16 00:09:51;;;;;;;;;;;23.50;99.90;;;;;;5072347;28;20019;-77
2021/12/16 00:29:31;;;;;;;;;;;24.10;99.90;;;;;;5049728;28;19921;-75
2021/12/16 00:31:57;;;;;;;;;;;24.00;99.90;;;;;;5070837;28;19919;-76
2021/12/16 00:34:25;;;;;;;;;;;23.80;99.90;;;;;;5071832;28;19938;-76
2021/12/16 00:36:52;;;;;;;;;;;23.60;99.90;;;;;;5072255;28;20314;-75
2021/12/16 00:39:24;;;;;;;;;;;23.50;99.90;;;;;;5071559;28;19917;-78
2021/12/16 00:41:57;;;;;;;;;;;23.50;99.90;;;;;;5071872;28;20363;-76
2021/12/16 00:47:23;;;;;;;;;;;23.60;99.90;;;;;;5071889;28;19916;-76
2021/12/16 00:49:50;;;;;;;;;;;24.00;99.90;;;;;;5062084;28;20339;-77
2021/12/16 00:55:25;;;;;;;;;;;24.60;99.90;;;;;;5072287;28;19958;-76
2021/12/16 00:57:53;;;;;;;;;;;25.00;99.90;;;;;;5071405;28;19912;-75
2021/12/16 01:00:20;;;;;;;;;;;25.20;99.90;;;;;;5071416;28;19939;-74
2021/12/16 01:51:26;;;;;;;;;;;24.80;99.90;;;;;;5074661;28;19948;-74
2021/12/16 01:57:05;;;;;;;;;;;24.10;99.90;;;;;;5067841;28;19923;-74
2021/12/16 01:59:36;;;;;;;;;;;24.10;99.90;;;;;;5073849;28;19917;-74
2021/12/16 02:02:14;;;;;;;;;;;24.20;99.90;;;;;;5074667;28;19912;-72
2021/12/16 02:10:16;;;;;;;;;;;24.30;99.90;;;;;;5067421;28;19924;-74
2021/12/16 02:13:14;;;;;;;;;;;24.30;99.90;;;;;;5074131;28;19928;-75
2021/12/16 02:29:51;;;;;;;;;;;24.60;99.90;;;;;;5073938;28;19973;-72
2021/12/16 02:32:40;;;;;;;;;;;24.50;99.90;;;;;;5074307;28;19917;-73
2021/12/16 02:37:44;;;;;;;;;;;24.00;99.90;;;;;;5073883;28;19912;-74
2021/12/16 02:40:11;;;;;;;;;;;24.10;99.90;;;;;;5074324;28;19952;-73
2021/12/16 02:42:55;;;;;;;;;;;24.40;99.90;;;;;;5073541;28;20323;-72
2021/12/16 02:50:54;;;;;;;;;;;24.20;99.90;;;;;;5073947;28;20057;-73
2021/12/16 02:53:20;;;;;;;;;;;24.10;99.90;;;;;;5073392;28;19916;-74
2021/12/16 02:55:47;;;;;;;;;;;24.10;99.90;;;;;;5073653;28;19913;-75
2021/12/16 02:58:15;;;;;;;;;;;24.00;99.90;;;;;;5073559;28;20398;-74
2021/12/16 03:00:46;;;;;;;;;;;24.00;99.90;;;;;;5073856;28;19919;-73
2021/12/16 03:03:13;;;;;;;;;;;24.00;99.90;;;;;;5073355;28;19985;-73
2021/12/16 03:05:40;;;;;;;;;;;23.80;99.90;;;;;;5073736;28;19962;-72
2021/12/16 03:08:08;;;;;;;;;;;23.70;99.90;;;;;;5072114;28;20011;-72
2021/12/16 03:13:39;;;;;;;;;;;23.50;99.90;;;;;;5051401;28;20276;-74
2021/12/16 03:21:36;;;;;;;;;;;23.40;99.90;;;;;;5072433;28;19948;-74
2021/12/16 03:32:40;;;;;;;;;;;23.50;99.90;;;;;;5061774;28;19991;-74
2021/12/16 03:37:54;;;;;;;;;;;23.20;99.90;;;;;;5072472;28;19999;-73
2021/12/16 03:40:22;;;;;;;;;;;23.10;99.90;;;;;;5073295;28;19913;-77
2021/12/16 03:42:57;;;;;;;;;;;22.90;99.90;;;;;;5072524;28;19912;-76
2021/12/16 03:48:11;;;;;;;;;;;22.80;99.90;;;;;;5072014;28;19919;-77
2021/12/16 03:50:38;;;;;;;;;;;22.70;99.90;;;;;;5072957;28;20370;-77
2021/12/16 03:53:06;;;;;;;;;;;22.70;99.90;;;;;;5072193;28;19923;-74
2021/12/16 03:55:33;;;;;;;;;;;22.70;99.90;;;;;;5072925;28;19913;-75
2021/12/16 03:58:00;;;;;;;;;;;22.80;99.90;;;;;;5071922;28;19921;-74
2021/12/16 04:00:30;;;;;;;;;;;23.00;99.90;;;;;;5072541;28;19947;-73
2021/12/16 04:02:57;;;;;;;;;;;23.30;99.90;;;;;;5071797;28;19912;-74
2021/12/16 04:05:25;;;;;;;;;;;23.20;99.90;;;;;;5072232;28;19921;-73
2021/12/16 04:07:52;;;;;;;;;;;23.10;99.90;;;;;;5069738;28;19912;-75
2021/12/16 04:10:31;;;;;;;;;;;22.90;99.90;;;;;;5072516;28;19931;-75
2021/12/16 04:12:59;;;;;;;;;;;22.80;99.90;;;;;;5071946;28;20282;-74
2021/12/16 04:15:26;;;;;;;;;;;22.80;99.90;;;;;;5072404;28;19913;-73
2021/12/16 04:17:53;;;;;;;;;;;22.70;99.90;;;;;;5071658;28;19918;-73
2021/12/16 04:20:19;;;;;;;;;;;22.70;99.90;;;;;;5072030;28;19923;-75
2021/12/16 04:22:46;;;;;;;;;;;22.40;99.90;;;;;;5072158;28;19936;-75
2021/12/16 04:25:15;;;;;;;;;;;22.30;99.90;;;;;;5072052;28;19921;-73
2021/12/16 04:27:43;;;;;;;;;;;22.20;99.90;;;;;;5071944;28;19919;-73
2021/12/16 04:30:10;;;;;;;;;;;22.00;99.90;;;;;;5071315;28;19913;-74
2021/12/16 04:32:38;;;;;;;;;;;21.70;99.90;;;;;;5071815;28;19919;-73
2021/12/16 04:35:05;;;;;;;;;;;21.70;99.90;;;;;;5071618;28;19974;-72
2021/12/16 04:37:31;;;;;;;;;;;21.60;99.90;;;;;;5072126;28;19912;-73
2021/12/16 04:40:00;;;;;;;;;;;21.70;99.90;;;;;;5071029;28;19920;-73
2021/12/16 04:42:27;;;;;;;;;;;21.70;99.90;;;;;;5071938;28;19912;-73
2021/12/16 04:44:54;;;;;;;;;;;21.60;99.90;;;;;;5071242;28;20299;-74
2021/12/16 04:47:21;;;;;;;;;;;21.50;99.90;;;;;;5071975;28;19923;-75
2021/12/16 04:49:47;;;;;;;;;;;21.50;99.90;;;;;;5071341;28;19916;-73
2021/12/16 04:52:15;;;;;;;;;;;21.70;99.90;;;;;;5072132;28;19928;-72
2021/12/16 04:54:42;;;;;;;;;;;21.60;99.90;;;;;;5071565;28;20279;-72
2021/12/16 04:57:09;;;;;;;;;;;21.70;99.90;;;;;;5071614;28;19912;-73
2021/12/16 04:59:36;;;;;;;;;;;21.60;99.90;;;;;;5071582;28;20390;-74
2021/12/16 05:02:11;;;;;;;;;;;21.50;99.90;;;;;;5071507;28;20352;-75
2021/12/16 05:04:37;;;;;;;;;;;21.50;99.90;;;;;;5071374;28;19928;-73
2021/12/16 05:07:05;;;;;;;;;;;21.50;99.90;;;;;;5071474;28;20279;-73
2021/12/16 05:12:10;;;;;;;;;;;21.40;99.90;;;;;;5053508;28;20006;-74
2021/12/16 05:14:37;;;;;;;;;;;21.40;99.90;;;;;;5036835;28;20370;-73
2021/12/16 05:17:11;;;;;;;;;;;21.50;99.90;;;;;;5054458;28;19913;-72
2021/12/16 05:19:40;;;;;;;;;;;21.50;99.90;;;;;;5053883;28;19916;-74
2021/12/16 05:24:53;;;;;;;;;;;21.40;99.90;;;;;;5055253;28;19923;-74
2021/12/16 05:27:20;;;;;;;;;;;21.50;99.90;;;;;;5053551;28;20046;-73
2021/12/16 05:29:47;;;;;;;;;;;21.40;99.90;;;;;;5053636;28;20409;-73
2021/12/16 05:32:14;;;;;;;;;;;21.50;99.90;;;;;;5053734;28;20393;-74
2021/12/16 05:34:40;;;;;;;;;;;21.50;99.90;;;;;;5054499;28;19909;-74
2021/12/16 05:37:08;;;;;;;;;;;21.50;99.90;;;;;;5053281;28;19919;-73
2021/12/16 05:39:35;;;;;;;;;;;21.50;99.90;;;;;;5054200;28;20335;-73
2021/12/16 05:42:01;;;;;;;;;;;21.50;99.90;;;;;;5053750;28;19992;-75
2021/12/16 05:44:28;;;;;;;;;;;21.50;99.90;;;;;;5053891;28;20278;-73
2021/12/16 05:46:55;;;;;;;;;;;21.60;99.90;;;;;;5054649;28;19913;-75
2021/12/16 05:49:22;;;;;;;;;;;21.60;99.90;;;;;;5053215;28;20000;-75
2021/12/16 05:51:49;;;;;;;;;;;21.70;99.90;;;;;;5053222;28;19916;-75
2021/12/16 05:54:16;;;;;;;;;;;21.60;99.90;;;;;;5051756;28;19909;-74
2021/12/16 05:56:44;;;;;;;;;;;21.60;99.90;;;;;;5053734;28;19936;-74
2021/12/16 05:59:13;;;;;;;;;;;21.50;99.90;;;;;;5052435;28;19966;-75
2021/12/16 06:01:41;;;;;;;;;;;21.50;99.90;;;;;;5053810;28;19973;-75
2021/12/16 06:04:08;;;;;;;;;;;21.50;99.90;;;;;;5051055;28;19927;-74
2021/12/16 06:06:35;;;;;;;;;;;21.40;99.90;;;;;;5053480;28;19991;-74
2021/12/16 06:09:01;;;;;;;;;;;21.30;99.90;;;;;;5059107;28;19986;-74
2021/12/16 06:11:31;;;;;;;;;;;21.30;99.90;;;;;;5072831;28;19913;-75
2021/12/16 06:14:43;;;;;;;;;;;21.40;99.90;;;;;;5073084;28;19920;-74
2021/12/16 06:26:24;;;;;;;;;;;21.10;99.90;;;;;;5064564;28;19978;-73
2021/12/16 06:28:20;;;;;;;;;;;21.00;99.90;;;;;;5072295;28;20009;-73
2021/12/16 06:30:46;;;;;;;;;;;20.90;99.90;;;;;;5062303;28;20071;-74
2021/12/16 06:33:15;;;;;;;;;;;20.90;99.90;;;;;;5070035;28;20283;-74
2021/12/16 06:35:42;;;;;;;;;;;20.90;99.90;;;;;;5072404;28;19920;-72
2021/12/16 06:38:09;;;;;;;;;;;21.00;99.90;;;;;;5071841;28;20589;-74
2021/12/16 06:40:36;;;;;;;;;;;21.00;99.90;;;;;;5071711;28;20022;-74
2021/12/16 06:43:04;;;;;;;;;;;21.00;99.90;;;;;;5071782;28;19916;-74
2021/12/16 06:45:35;;;;;;;;;;;20.90;99.90;;;;;;5071759;28;19935;-73
2021/12/16 06:48:08;;;;;;;;;;;20.90;99.90;;;;;;5071715;28;20351;-72
2021/12/16 06:50:58;;;;;;;;;;;20.90;99.90;;;;;;5072166;28;19920;-72
2021/12/16 06:53:30;;;;;;;;;;;20.90;99.90;;;;;;5071838;28;20369;-73
2021/12/16 06:58:33;;;;;;;;;;;20.90;99.90;;;;;;5065310;28;19912;-73
2021/12/16 07:01:11;;;;;;;;;;;20.90;99.90;;;;;;5062751;28;19912;-74
2021/12/16 07:03:47;;;;;;;;;;;20.90;99.90;;;;;;5071366;28;19924;-73
2021/12/16 07:06:22;;;;;;;;;;;20.90;99.90;;;;;;5071988;28;20290;-73
2021/12/16 07:08:49;;;;;;;;;;;20.80;99.90;;;;;;5071181;28;19929;-72
2021/12/16 07:11:16;;;;;;;;;;;20.80;99.90;;;;;;5071372;28;19921;-72
2021/12/16 07:13:55;;;;;;;;;;;20.80;99.90;;;;;;5071138;28;19921;-72
2021/12/16 07:16:22;;;;;;;;;;;20.90;99.90;;;;;;5071560;28;20007;-72
2021/12/16 07:18:49;;;;;;;;;;;20.80;99.90;;;;;;5070876;28;19928;-74
2021/12/16 07:21:16;;;;;;;;;;;20.80;99.90;;;;;;5071443;28;19944;-73
2021/12/16 07:23:43;;;;;;;;;;;20.90;99.90;;;;;;5069086;28;19920;-72
2021/12/16 07:26:09;;;;;;;;;;;20.80;99.90;;;;;;5071207;28;19966;-74
2021/12/16 07:28:36;;;;;;;;;;;20.80;99.90;;;;;;5070739;28;20023;-73
2021/12/16 07:31:02;;;;;;;;;;;20.80;99.90;;;;;;5071179;28;19912;-73
2021/12/16 07:33:29;;;;;;;;;;;20.80;99.90;;;;;;5070642;28;19920;-73
2021/12/16 07:35:56;;;;;;;;;;;20.80;99.90;;;;;;5070563;28;19982;-73
2021/12/16 07:38:23;;;;;;;;;;;20.70;99.90;;;;;;5070717;28;19964;-74
2021/12/16 07:40:51;;;;;;;;;;;20.80;99.90;;;;;;5071140;28;19970;-73
2021/12/16 07:43:30;;;;;;;;;;;20.80;99.90;;;;;;5070889;28;19913;-73
2021/12/16 07:45:57;;;;;;;;;;;20.80;99.90;;;;;;5070491;28;19960;-72
2021/12/16 07:48:25;;;;;;;;;;;20.80;99.90;;;;;;5070237;28;19939;-73
2021/12/16 07:50:54;;;;;;;;;;;20.80;99.90;;;;;;5070541;28;20275;-73
2021/12/16 07:53:20;;;;;;;;;;;20.80;99.90;;;;;;5070885;28;19917;-74
2021/12/16 07:55:47;;;;;;;;;;;20.70;99.90;;;;;;5070375;28;19916;-74
2021/12/16 07:58:14;;;;;;;;;;;20.70;99.90;;;;;;5070532;28;19964;-74
2021/12/16 08:00:41;;;;;;;;;;;20.70;99.90;;;;;;5069273;28;19958;-75
2021/12/16 08:03:10;;;;;;;;;;;20.80;99.90;;;;;;5070158;28;19917;-73
2021/12/16 08:05:40;;;;;;;;;;;20.80;99.90;;;;;;5071814;28;19928;-74
2021/12/16 08:08:08;;;;;;;;;;;20.80;99.90;;;;;;5072322;28;19923;-74
2021/12/16 08:10:34;;;;;;;;;;;20.80;99.90;;;;;;5072094;28;20290;-73
2021/12/16 08:13:01;;;;;;;;;;;20.80;99.90;;;;;;5072772;28;19918;-74
2021/12/16 08:15:28;;;;;;;;;;;20.90;99.90;;;;;;5072424;28;19943;-83
2021/12/16 08:17:55;;;;;;;;;;;20.90;99.90;;;;;;5072908;28;19917;-72
2021/12/16 08:20:23;;;;;;;;;;;20.90;99.90;;;;;;5072401;28;19939;-74
2021/12/16 08:22:50;;;;;;;;;;;20.80;99.90;;;;;;5062518;28;19913;-73
2021/12/16 08:25:18;;;;;;;;;;;20.80;99.90;;;;;;5071740;28;19920;-75
2021/12/16 08:27:45;;;;;;;;;;;20.80;99.90;;;;;;5072275;28;19917;-73
2021/12/16 08:30:13;;;;;;;;;;;20.80;99.90;;;;;;5072107;28;20398;-73
2021/12/16 08:32:40;;;;;;;;;;;20.80;99.90;;;;;;5071315;28;20031;-74
2021/12/16 08:35:08;;;;;;;;;;;20.80;99.90;;;;;;5072004;28;19916;-76
2021/12/16 08:37:34;;;;;;;;;;;20.70;99.90;;;;;;5071695;28;19916;-73
2021/12/16 08:40:02;;;;;;;;;;;20.70;99.90;;;;;;5070657;28;19948;-72
2021/12/16 08:42:29;;;;;;;;;;;20.70;99.90;;;;;;5070173;28;19913;-72
2021/12/16 08:44:56;;;;;;;;;;;20.80;99.90;;;;;;5071697;28;19921;-72
2021/12/16 08:47:23;;;;;;;;;;;20.80;99.90;;;;;;5071060;28;19923;-73
2021/12/16 08:49:50;;;;;;;;;;;20.70;99.90;;;;;;5071880;28;19913;-73
2021/12/16 08:52:19;;;;;;;;;;;20.70;99.90;;;;;;5071242;28;20299;-74
2021/12/16 08:54:46;;;;;;;;;;;20.80;99.90;;;;;;5072014;28;20358;-74
2021/12/16 08:57:13;;;;;;;;;;;20.70;99.90;;;;;;5071277;28;20068;-73
2021/12/16 08:59:40;;;;;;;;;;;20.80;99.90;;;;;;5071980;28;19919;-73
2021/12/16 09:02:07;;;;;;;;;;;20.70;99.90;;;;;;5070904;28;20394;-73
2021/12/16 09:04:34;;;;;;;;;;;20.70;99.90;;;;;;5071802;28;19978;-74
2021/12/16 09:07:02;;;;;;;;;;;20.70;99.90;;;;;;5071752;28;19921;-74
2021/12/16 09:09:33;;;;;;;;;;;20.70;99.90;;;;;;5071640;28;19973;-73
2021/12/16 09:12:06;;;;;;;;;;;20.60;99.90;;;;;;5071111;28;19952;-73
2021/12/16 09:14:35;;;;;;;;;;;20.70;99.90;;;;;;5072088;28;19913;-73
2021/12/16 09:17:03;;;;;;;;;;;20.70;99.90;;;;;;5071385;28;19923;-74
2021/12/16 09:19:29;;;;;;;;;;;20.70;99.90;;;;;;5071329;28;19921;-74
2021/12/16 09:21:56;;;;;;;;;;;20.70;99.90;;;;;;5071310;28;19913;-73
2021/12/16 09:24:23;;;;;;;;;;;20.70;99.90;;;;;;5071063;28;19966;-74
2021/12/16 09:26:50;;;;;;;;;;;20.60;99.90;;;;;;5070207;28;19916;-74
2021/12/16 09:29:16;;;;;;;;;;;20.50;99.90;;;;;;5071245;28;19921;-74
2021/12/16 09:31:43;;;;;;;;;;;20.40;99.90;;;;;;5071571;28;20008;-74
2021/12/16 09:34:10;;;;;;;;;;;20.30;99.90;;;;;;5071186;28;19920;-73
2021/12/16 09:36:39;;;;;;;;;;;20.40;99.90;;;;;;5071711;28;19919;-73
2021/12/16 09:39:08;;;;;;;;;;;20.30;99.90;;;;;;5071027;28;19924;-74
2021/12/16 09:41:35;;;;;;;;;;;20.30;99.90;;;;;;5071476;28;19913;-73
2021/12/16 09:44:01;;;;;;;;;;;20.30;99.90;;;;;;5069604;28;19920;-73
2021/12/16 09:46:29;;;;;;;;;;;20.20;99.90;;;;;;5074135;28;19913;-73
2021/12/16 09:48:56;;;;;;;;;;;20.20;99.90;;;;;;5070655;28;19923;-73
2021/12/16 09:51:24;;;;;;;;;;;20.20;99.90;;;;;;5075171;28;19912;-73
2021/12/16 09:53:52;;;;;;;;;;;20.20;99.90;;;;;;5074446;28;19921;-74
2021/12/16 09:56:19;;;;;;;;;;;20.30;99.90;;;;;;5075186;28;19923;-74
2021/12/16 09:58:47;;;;;;;;;;;20.30;99.90;;;;;;5073806;28;19917;-72
2021/12/16 10:01:15;;;;;;;;;;;20.30;99.90;;;;;;5072280;28;19963;-73
2021/12/16 10:03:43;;;;;;;;;;;20.40;99.90;;;;;;5070397;28;19916;-73
2021/12/16 10:06:10;;;;;;;;;;;20.40;99.90;;;;;;5073949;28;19952;-73
2021/12/16 10:08:37;;;;;;;;;;;20.40;99.90;;;;;;5074622;28;19923;-72
2021/12/16 10:11:07;;;;;;;;;;;20.40;99.90;;;;;;5074458;28;20371;-74
2021/12/16 10:19:12;;;;;;;;;;;20.30;99.90;;;;;;5074641;28;19919;-72
2021/12/16 10:21:42;;;;;;;;;;;20.30;99.90;;;;;;5074916;28;20240;-74
2021/12/16 10:24:24;;;;;;;;;;;20.30;99.90;;;;;;5073843;28;19913;-74
2021/12/16 10:27:09;;;;;;;;;;;20.30;99.90;;;;;;5074524;28;19916;-73
2021/12/16 10:29:37;;;;;;;;;;;20.30;99.90;;;;;;5072314;28;20270;-74
2021/12/16 10:32:05;;;;;;;;;;;20.30;99.90;;;;;;5074157;28;20044;-74
2021/12/16 10:34:32;;;;;;;;;;;20.20;99.90;;;;;;5074091;28;19947;-74
2021/12/16 10:36:59;;;;;;;;;;;20.20;99.90;;;;;;5074478;28;19908;-73
2021/12/16 10:39:28;;;;;;;;;;;20.20;99.90;;;;;;5073776;28;19963;-74
2021/12/16 10:41:55;;;;;;;;;;;20.20;99.90;;;;;;5074405;28;19917;-73
2021/12/16 10:44:23;;;;;;;;;;;20.20;99.90;;;;;;5073269;28;19920;-74
2021/12/16 10:47:16;;;;;;;;;;;20.20;99.90;;;;;;5074555;28;20042;-74
2021/12/16 10:49:44;;;;;;;;;;;20.20;99.90;;;;;;5070429;28;19935;-73
2021/12/16 10:52:15;;;;;;;;;;;20.20;99.90;;;;;;5073822;28;19920;-73
2021/12/16 10:54:46;;;;;;;;;;;20.20;99.90;;;;;;5073538;28;20371;-73
2021/12/16 10:57:27;;;;;;;;;;;20.20;99.90;;;;;;5073599;28;19914;-73
2021/12/16 10:59:56;;;;;;;;;;;20.20;99.90;;;;;;5073468;28;20279;-73
2021/12/16 11:02:23;;;;;;;;;;;20.20;99.90;;;;;;5073458;28;19916;-72
2021/12/16 11:04:49;;;;;;;;;;;20.20;99.90;;;;;;5073817;28;19927;-72
2021/12/16 11:07:34;;;;;;;;;;;20.10;99.90;;;;;;5073614;28;19916;-75
2021/12/16 11:10:05;;;;;;;;;;;20.20;99.90;;;;;;5073618;28;20013;-74
2021/12/16 11:12:34;;;;;;;;;;;20.30;99.90;;;;;;5073868;28;19919;-72
2021/12/16 11:15:16;;;;;;;;;;;20.30;99.90;;;;;;5073299;28;19913;-72
2021/12/16 11:17:54;;;;;;;;;;;20.40;99.90;;;;;;5073094;28;19920;-72
2021/12/16 11:20:30;;;;;;;;;;;20.40;99.90;;;;;;5074124;28;19979;-73
2021/12/16 11:22:58;;;;;;;;;;;20.40;99.90;;;;;;5072780;28;19919;-73
2021/12/16 11:25:30;;;;;;;;;;;20.40;99.90;;;;;;5073612;28;19920;-72
2021/12/16 11:28:08;;;;;;;;;;;20.50;99.90;;;;;;5072268;28;19913;-73
2021/12/16 11:30:52;;;;;;;;;;;20.50;99.90;;;;;;5073277;28;19912;-73
2021/12/16 11:33:33;;;;;;;;;;;20.50;99.90;;;;;;5063836;28;19916;-74
2021/12/16 11:36:06;;;;;;;;;;;20.50;99.90;;;;;;5070304;28;19912;-73
2021/12/16 11:38:41;;;;;;;;;;;20.40;99.90;;;;;;5071327;28;19966;-73
2021/12/16 11:41:12;;;;;;;;;;;20.40;99.90;;;;;;5070543;28;19919;-73
2021/12/16 11:43:39;;;;;;;;;;;20.40;99.90;;;;;;5070487;28;20007;-73
2021/12/16 11:46:08;;;;;;;;;;;20.40;99.90;;;;;;5070054;28;19971;-73
2021/12/16 11:48:37;;;;;;;;;;;20.40;99.90;;;;;;5070850;28;19923;-73
2021/12/16 11:51:08;;;;;;;;;;;20.40;99.90;;;;;;5070543;28;19913;-72
2021/12/16 11:53:36;;;;;;;;;;;20.40;99.90;;;;;;5070982;28;19916;-72
2021/12/16 11:56:03;;;;;;;;;;;20.30;99.90;;;;;;5070315;28;19917;-72
2021/12/16 11:58:31;;;;;;;;;;;20.30;99.90;;;;;;5070459;28;20378;-73
2021/12/16 12:00:58;;;;;;;;;;;20.30;99.90;;;;;;5069764;28;19913;-73
2021/12/16 12:03:32;;;;;;;;;;;20.30;99.90;;;;;;5070731;28;19912;-73
2021/12/16 12:05:59;;;;;;;;;;;20.30;99.90;;;;;;5069950;28;19921;-73
2021/12/16 12:08:27;;;;;;;;;;;20.30;99.90;;;;;;5068330;28;19912;-73
2021/12/16 12:11:06;;;;;;;;;;;20.30;99.90;;;;;;5070219;28;19916;-73
2021/12/16 12:13:41;;;;;;;;;;;20.30;99.90;;;;;;5061226;28;20418;-74
2021/12/16 12:16:15;;;;;;;;;;;20.20;99.90;;;;;;5069568;28;19920;-73
2021/12/16 12:18:43;;;;;;;;;;;20.10;99.90;;;;;;5070557;28;20023;-73
2021/12/16 12:21:18;;;;;;;;;;;20.00;99.90;;;;;;5069999;28;19920;-73
2021/12/16 12:23:46;;;;;;;;;;;20.00;99.90;;;;;;5070455;28;19916;-73
2021/12/16 12:26:16;;;;;;;;;;;19.90;99.90;;;;;;5069947;28;19944;-72
2021/12/16 12:28:53;;;;;;;;;;;20.00;99.90;;;;;;5070032;28;20008;-73
2021/12/16 12:31:21;;;;;;;;;;;20.00;99.90;;;;;;5069786;28;19998;-73
2021/12/16 12:33:47;;;;;;;;;;;20.00;99.90;;;;;;5069988;28;19919;-73
2021/12/16 12:36:15;;;;;;;;;;;20.00;99.90;;;;;;5069693;28;19921;-72
2021/12/16 12:38:42;;;;;;;;;;;20.00;99.90;;;;;;5070565;28;19917;-73
2021/12/16 12:41:09;;;;;;;;;;;20.00;99.90;;;;;;5069550;28;19920;-72
2021/12/16 12:43:37;;;;;;;;;;;20.10;99.90;;;;;;5069043;28;19960;-73
2021/12/16 12:46:05;;;;;;;;;;;20.10;99.90;;;;;;5069394;28;20007;-72
2021/12/16 12:48:36;;;;;;;;;;;20.10;99.90;;;;;;5059696;28;19913;-72
2021/12/16 12:51:04;;;;;;;;;;;20.00;99.90;;;;;;5069529;28;19948;-72
2021/12/16 12:53:31;;;;;;;;;;;20.00;99.90;;;;;;5069758;28;19928;-73
2021/12/16 12:56:08;;;;;;;;;;;20.00;99.90;;;;;;5069528;28;19978;-72
2021/12/16 12:58:47;;;;;;;;;;;20.00;99.90;;;;;;5059972;28;20381;-72
2021/12/16 13:01:13;;;;;;;;;;;20.10;99.90;;;;;;5069424;28;19912;-73
2021/12/16 13:03:41;;;;;;;;;;;20.00;99.90;;;;;;5069792;28;20358;-72
2021/12/16 13:06:12;;;;;;;;;;;19.90;99.90;;;;;;5068804;28;19921;-72
2021/12/16 13:08:44;;;;;;;;;;;19.80;99.90;;;;;;5059831;28;19921;-72
2021/12/16 13:11:13;;;;;;;;;;;19.70;99.90;;;;;;5069399;28;20303;-73
2021/12/16 13:14:07;;;;;;;;;;;19.70;99.90;;;;;;5069742;28;19917;-72
2021/12/16 13:26:06;;;;;;;;;;;19.60;99.90;;;;;;5072744;28;20401;-74
2021/12/16 13:27:49;;;;;;;;;;;19.70;99.90;;;;;;5069886;28;19939;-74
2021/12/16 13:30:26;;;;;;;;;;;19.70;99.90;;;;;;5073478;28;19924;-72
2021/12/16 13:33:25;;;;;;;;;;;19.80;99.90;;;;;;5072968;28;19948;-71
2021/12/16 13:36:15;;;;;;;;;;;19.70;99.90;;;;;;5067967;28;19995;-72
2021/12/16 13:38:47;;;;;;;;;;;19.70;99.90;;;;;;5073404;28;19952;-72
2021/12/16 13:41:19;;;;;;;;;;;19.70;99.90;;;;;;5073170;28;19916;-72
2021/12/16 13:44:15;;;;;;;;;;;19.70;99.90;;;;;;5073443;28;19973;-72
2021/12/16 13:47:05;;;;;;;;;;;19.70;99.90;;;;;;5070445;28;19967;-72
2021/12/16 13:59:37;;;;;;;;;;;19.80;99.90;;;;;;5072782;28;20298;-72
2021/12/16 14:07:13;;;;;;;;;;;19.90;99.90;;;;;;5072373;28;19927;-73
2021/12/16 14:09:35;;;;;;;;;;;19.90;99.90;;;;;;5072340;28;19925;-72
2021/12/16 14:17:41;;;;;;;;;;;20.00;99.90;;;;;;5072987;28;19966;-73
2021/12/16 14:23:23;;;;;;;;;;;20.00;99.90;;;;;;5072521;28;20381;-73
2021/12/16 14:31:21;;;;;;;;;;;19.90;99.90;;;;;;5071802;28;19924;-72
2021/12/16 14:37:11;;;;;;;;;;;19.90;99.90;;;;;;5072361;28;19962;-72
2021/12/16 14:42:23;;;;;;;;;;;19.80;99.90;;;;;;5072027;28;19920;-72
2021/12/16 14:48:05;;;;;;;;;;;19.70;99.90;;;;;;5064363;28;20438;-72
2021/12/16 14:50:35;;;;;;;;;;;19.70;99.90;;;;;;5068264;28;20429;-72
2021/12/16 14:53:11;;;;;;;;;;;19.70;99.90;;;;;;5072072;28;19920;-71
2021/12/16 14:55:38;;;;;;;;;;;19.70;99.90;;;;;;5062054;28;20021;-72
2021/12/16 14:58:05;;;;;;;;;;;19.70;99.90;;;;;;5071573;28;19909;-71
2021/12/16 15:00:37;;;;;;;;;;;19.70;99.90;;;;;;5071104;28;19999;-72
2021/12/16 15:03:11;;;;;;;;;;;19.70;99.90;;;;;;5071857;28;20364;-72
2021/12/16 15:05:45;;;;;;;;;;;19.70;99.90;;;;;;5071566;28;19920;-71
2021/12/16 15:08:16;;;;;;;;;;;19.70;99.90;;;;;;5070503;28;19983;-73
2021/12/16 15:10:44;;;;;;;;;;;19.70;99.90;;;;;;5044227;28;19921;-71
2021/12/16 15:13:25;;;;;;;;;;;19.70;99.90;;;;;;5055334;28;19921;-72
2021/12/16 15:38:12;;;;;;;;;;;19.60;99.90;;;;;;5053276;28;19912;-72
2021/12/16 15:40:56;;;;;;;;;;;19.60;99.90;;;;;;5054464;28;20522;-72
2021/12/16 15:43:30;;;;;;;;;;;19.50;99.90;;;;;;5054243;28;20065;-71
2021/12/16 15:45:57;;;;;;;;;;;19.60;99.90;;;;;;5052867;28;19920;-71
2021/12/16 15:48:25;;;;;;;;;;;19.60;99.90;;;;;;5054748;28;19913;-71
2021/12/16 15:51:03;;;;;;;;;;;19.60;99.90;;;;;;5053219;28;19917;-71
2021/12/16 15:53:32;;;;;;;;;;;19.60;99.90;;;;;;5054616;28;20379;-71
2021/12/16 15:56:05;;;;;;;;;;;19.60;99.90;;;;;;5052472;28;19999;-72
2021/12/16 15:58:35;;;;;;;;;;;19.60;99.90;;;;;;5053879;28;20698;-73
2021/12/16 16:01:07;;;;;;;;;;;19.50;99.90;;;;;;5053469;28;19920;-74
2021/12/16 16:03:35;;;;;;;;;;;19.60;99.90;;;;;;5055797;28;19928;-73
2021/12/16 16:06:05;;;;;;;;;;;19.60;99.90;;;;;;5054408;28;19927;-73
2021/12/16 16:08:34;;;;;;;;;;;19.60;99.90;;;;;;5057846;28;19920;-72
2021/12/16 16:11:03;;;;;;;;;;;19.60;99.90;;;;;;5072853;28;20030;-73
2021/12/16 16:13:37;;;;;;;;;;;19.50;99.90;;;;;;5072047;28;20302;-74
2021/12/16 16:16:06;;;;;;;;;;;19.60;99.90;;;;;;5072384;28;19966;-72
2021/12/16 16:18:37;;;;;;;;;;;19.60;99.90;;;;;;5072024;28;19951;-73
2021/12/16 16:21:16;;;;;;;;;;;19.50;99.90;;;;;;5072466;28;19974;-72
2021/12/16 16:23:46;;;;;;;;;;;19.50;99.90;;;;;;5072164;28;19913;-72
2021/12/16 16:26:14;;;;;;;;;;;19.50;99.90;;;;;;5072587;28;19924;-73
2021/12/16 16:28:42;;;;;;;;;;;19.60;99.90;;;;;;5071830;28;19956;-73
2021/12/16 16:31:09;;;;;;;;;;;19.50;99.90;;;;;;5072269;28;19913;-73
2021/12/16 16:33:37;;;;;;;;;;;19.60;99.90;;;;;;5071745;28;20013;-72
2021/12/16 16:36:08;;;;;;;;;;;19.60;99.90;;;;;;5072086;28;19919;-72
2021/12/16 16:38:39;;;;;;;;;;;19.60;99.90;;;;;;5071720;28;19966;-73
2021/12/16 16:41:09;;;;;;;;;;;19.50;99.90;;;;;;5072327;28;19923;-71
2021/12/16 16:43:44;;;;;;;;;;;19.50;99.90;;;;;;5071793;28;19921;-72
2021/12/16 16:46:18;;;;;;;;;;;19.50;99.90;;;;;;5072000;28;19970;-72
2021/12/16 16:49:25;;;;;;;;;;;19.40;99.90;;;;;;5071062;28;20334;-72
2021/12/16 16:51:44;;;;;;;;;;;19.40;99.90;;;;;;5070464;28;19955;-73
2021/12/16 16:54:18;;;;;;;;;;;19.30;99.90;;;;;;5071411;28;19999;-72
2021/12/16 16:56:48;;;;;;;;;;;19.30;99.90;;;;;;5071695;28;19967;-72
2021/12/16 16:59:17;;;;;;;;;;;19.40;99.90;;;;;;5071959;28;19920;-72
2021/12/16 17:01:43;;;;;;;;;;;19.40;99.90;;;;;;5071568;28;20358;-72
2021/12/16 17:04:14;;;;;;;;;;;19.30;99.90;;;;;;5072451;28;19916;-74
2021/12/16 17:06:45;;;;;;;;;;;19.30;99.90;;;;;;5071648;28;19970;-73
2021/12/16 17:09:12;;;;;;;;;;;19.30;99.90;;;;;;5071419;28;19922;-72
2021/12/16 17:11:46;;;;;;;;;;;19.30;99.90;;;;;;5071762;28;19912;-72
2021/12/16 17:14:17;;;;;;;;;;;19.30;99.90;;;;;;5071418;28;19913;-73
2021/12/16 17:19:34;;;;;;;;;;;19.20;99.90;;;;;;5063028;28;19920;-72
2021/12/16 17:22:02;;;;;;;;;;;19.20;99.90;;;;;;5071498;28;19966;-73
2021/12/16 17:24:32;;;;;;;;;;;19.20;99.90;;;;;;5072152;28;19966;-72
2021/12/16 17:27:07;;;;;;;;;;;19.20;99.90;;;;;;5071684;28;19920;-74
2021/12/16 17:29:39;;;;;;;;;;;19.20;99.90;;;;;;5071819;28;19948;-72
2021/12/16 17:32:07;;;;;;;;;;;19.10;99.90;;;;;;5071097;28;20036;-74
2021/12/16 17:34:40;;;;;;;;;;;19.10;99.90;;;;;;5071866;28;19919;-72
2021/12/16 17:37:09;;;;;;;;;;;19.20;99.90;;;;;;5071251;28;20019;-72
2021/12/16 17:39:44;;;;;;;;;;;19.20;99.90;;;;;;5071763;28;19917;-72
2021/12/16 17:42:14;;;;;;;;;;;19.20;99.90;;;;;;5071198;28;19920;-72
2021/12/16 17:44:41;;;;;;;;;;;19.20;99.90;;;;;;5071594;28;19998;-73
2021/12/16 17:47:10;;;;;;;;;;;19.20;99.90;;;;;;5071273;28;21164;-72
2021/12/16 17:49:37;;;;;;;;;;;19.20;99.90;;;;;;5076689;28;20366;-72
2021/12/16 17:52:05;;;;;;;;;;;19.20;99.90;;;;;;5071775;28;19919;-72
2021/12/16 17:54:39;;;;;;;;;;;19.30;99.90;;;;;;5071889;28;19948;-73
2021/12/16 17:57:06;;;;;;;;;;;19.20;99.90;;;;;;5071496;28;20313;-73
2021/12/16 17:59:36;;;;;;;;;;;19.10;99.90;;;;;;5072893;28;19912;-72
2021/12/16 18:02:04;;;;;;;;;;;19.10;99.90;;;;;;5071169;28;19990;-73
2021/12/16 18:04:33;;;;;;;;;;;19.00;99.90;;;;;;5061668;28;19923;-72
2021/12/16 18:07:02;;;;;;;;;;;19.00;99.90;;;;;;5074216;28;20794;-72
2021/12/16 18:09:39;;;;;;;;;;;19.00;99.90;;;;;;5075102;28;20411;-72
2021/12/16 18:12:12;;;;;;;;;;;19.00;99.90;;;;;;5073195;28;20417;-72
2021/12/16 18:14:43;;;;;;;;;;;19.00;99.90;;;;;;5066094;28;19913;-72
2021/12/16 18:17:11;;;;;;;;;;;18.90;99.90;;;;;;5074751;28;19974;-71
2021/12/16 18:19:47;;;;;;;;;;;19.00;99.90;;;;;;5075159;28;20430;-72